createdAt,value
2023-05-02T00:02:25.769Z,9.55
2023-05-02T00:04:52.784Z,9.00
2023-05-02T00:07:20.614Z,9.43
2023-05-02T00:09:47.547Z,9.52
2023-05-02T00:12:14.406Z,10.05
2023-05-02T00:14:41.234Z,10.35
2023-05-02T00:17:08.235Z,9.13
2023-05-02T00:19:41.283Z,9.43
2023-05-02T00:22:08.399Z,10.32
2023-05-02T00:24:35.235Z,10.63
2023-05-02T00:27:02.275Z,9.82
2023-05-02T00:29:29.151Z,10.88
2023-05-02T00:31:56.830Z,10.75
2023-05-02T00:34:32.863Z,10.90
2023-05-02T00:37:00.049Z,9.88
2023-05-02T00:39:26.900Z,9.45
2023-05-02T00:42:00.378Z,9.80
2023-05-02T00:44:28.121Z,9.73
2023-05-02T00:46:56.730Z,9.63
2023-05-02T00:49:24.737Z,10.70
2023-05-02T00:51:51.710Z,10.05
2023-05-02T00:54:18.600Z,8.85
2023-05-02T00:56:46.477Z,8.88
2023-05-02T00:59:15.360Z,9.73
2023-05-02T01:02:22.351Z,9.30
2023-05-02T01:05:16.959Z,9.98
2023-05-02T01:08:02.985Z,10.43
2023-05-02T01:10:36.678Z,9.70
2023-05-02T01:13:17.908Z,8.95
2023-05-02T01:15:47.416Z,8.50
2023-05-02T01:18:18.592Z,8.27
2023-05-02T01:20:50.905Z,8.68
2023-05-02T01:23:58.278Z,8.63
2023-05-02T01:26:41.348Z,8.73
2023-05-02T01:29:11.504Z,8.65
2023-05-02T01:31:46.406Z,8.70
2023-05-02T01:34:13.440Z,8.98
2023-05-02T01:36:47.129Z,9.77
2023-05-02T01:39:20.922Z,10.20
2023-05-02T01:41:52.187Z,10.43
2023-05-02T01:44:22.895Z,10.35
2023-05-02T01:46:53.183Z,10.00
2023-05-02T01:49:22.684Z,10.77
2023-05-02T01:51:51.230Z,10.45
2023-05-02T01:54:21.407Z,10.13
2023-05-02T01:56:50.005Z,9.77
2023-05-02T01:59:22.668Z,10.02
2023-05-02T02:01:52.064Z,9.60
2023-05-02T02:04:22.113Z,9.63
2023-05-02T02:07:02.308Z,9.48
2023-05-02T02:09:31.316Z,9.80
2023-05-02T02:12:12.698Z,10.73
2023-05-02T02:14:46.299Z,14.32
2023-05-02T02:17:25.655Z,10.55
2023-05-02T02:19:56.223Z,10.30
2023-05-02T02:22:27.551Z,9.52
2023-05-02T02:24:55.653Z,9.95
2023-05-02T02:27:22.646Z,8.80
2023-05-02T02:29:49.683Z,9.15
2023-05-02T02:32:16.613Z,8.52
2023-05-02T02:34:43.582Z,8.52
2023-05-02T02:37:27.532Z,9.27
2023-05-02T02:40:36.023Z,9.82
2023-05-02T02:43:34.150Z,10.18
2023-05-02T02:46:19.649Z,9.55
2023-05-02T02:49:27.099Z,9.38
2023-05-02T02:52:07.698Z,9.65
2023-05-02T02:55:06.394Z,9.32
2023-05-02T02:57:44.914Z,9.77
2023-05-02T03:00:27.257Z,10.13
2023-05-02T03:02:56.871Z,8.73
2023-05-02T03:05:24.709Z,8.95
2023-05-02T03:07:52.379Z,9.57
2023-05-02T03:10:19.359Z,9.07
2023-05-02T03:12:46.224Z,10.80
2023-05-02T03:15:58.313Z,12.40
2023-05-02T03:18:25.269Z,13.85
2023-05-02T03:20:52.195Z,14.95
2023-05-02T03:23:19.049Z,15.70
2023-05-02T03:25:45.948Z,13.80
2023-05-02T03:28:13.061Z,13.77
2023-05-02T03:30:40.864Z,13.57
2023-05-02T03:33:08.976Z,13.90
2023-05-02T03:35:35.977Z,13.70
2023-05-02T03:38:02.855Z,13.18
2023-05-02T03:40:29.707Z,14.20
2023-05-02T03:42:56.542Z,13.20
2023-05-02T03:45:23.440Z,11.82
2023-05-02T03:47:50.306Z,10.88
2023-05-02T03:50:18.442Z,10.10
2023-05-02T03:52:45.335Z,10.10
2023-05-02T03:55:12.309Z,9.63
2023-05-02T03:57:39.160Z,9.55
2023-05-02T04:00:07.415Z,9.52
2023-05-02T04:02:34.327Z,9.05
2023-05-02T04:05:01.236Z,8.95
2023-05-02T04:07:28.605Z,8.82
2023-05-02T04:09:55.535Z,9.10
2023-05-02T04:12:22.458Z,8.90
2023-05-02T04:14:49.386Z,8.30
2023-05-02T04:17:16.373Z,9.13
2023-05-02T04:19:43.357Z,8.43
2023-05-02T04:22:10.228Z,9.00
2023-05-02T04:24:37.062Z,8.65
2023-05-02T04:27:04.061Z,7.45
2023-05-02T04:29:30.924Z,8.65
2023-05-02T04:31:57.790Z,8.75
2023-05-02T04:34:24.673Z,8.60
2023-05-02T04:36:51.546Z,9.02
2023-05-02T04:39:18.400Z,9.63
2023-05-02T04:41:46.292Z,10.05
2023-05-02T04:44:13.188Z,9.63
2023-05-02T04:46:40.321Z,9.43
2023-05-02T04:49:07.361Z,9.70
2023-05-02T04:51:34.523Z,9.90
2023-05-02T04:54:01.516Z,9.40
2023-05-02T04:56:28.480Z,9.35
2023-05-02T04:58:55.368Z,9.88
2023-05-02T05:01:24.120Z,9.52
2023-05-02T05:03:51.217Z,9.15
2023-05-02T05:06:19.269Z,9.25
2023-05-02T05:08:46.522Z,9.55
2023-05-02T05:11:13.509Z,9.90
2023-05-02T05:13:40.795Z,9.40
2023-05-02T05:16:08.130Z,9.35
2023-05-02T05:18:40.623Z,9.38
2023-05-02T05:21:08.894Z,9.07
2023-05-02T05:23:37.008Z,8.93
2023-05-02T05:26:12.082Z,9.18
2023-05-02T05:28:39.424Z,9.48
2023-05-02T05:31:08.489Z,9.45
2023-05-02T05:33:39.619Z,9.07
2023-05-02T05:36:17.203Z,8.82
2023-05-02T05:38:44.610Z,9.10
2023-05-02T05:41:11.497Z,9.43
2023-05-02T05:43:38.498Z,9.02
2023-05-02T05:46:05.838Z,9.15
2023-05-02T05:48:32.760Z,8.77
2023-05-02T05:51:07.346Z,8.63
2023-05-02T05:53:34.657Z,9.25
2023-05-02T05:56:13.949Z,10.07
2023-05-02T05:58:42.660Z,8.73
2023-05-02T06:01:09.649Z,9.68
2023-05-02T06:03:36.689Z,9.95
2023-05-02T06:06:04.591Z,10.35
2023-05-02T06:08:31.619Z,9.43
2023-05-02T06:10:58.499Z,9.63
2023-05-02T06:13:26.275Z,9.52
2023-05-02T06:15:53.196Z,8.93
2023-05-02T06:18:20.081Z,9.45
2023-05-02T06:20:46.942Z,9.63
2023-05-02T06:23:13.775Z,9.48
2023-05-02T06:25:40.728Z,8.75
2023-05-02T06:28:07.764Z,9.48
2023-05-02T06:30:34.642Z,9.50
2023-05-02T06:33:04.330Z,9.57
2023-05-02T06:35:31.421Z,9.68
2023-05-02T06:37:58.253Z,9.45
2023-05-02T06:40:25.285Z,10.18
2023-05-02T06:42:52.195Z,9.55
2023-05-02T06:45:19.667Z,9.07
2023-05-02T06:47:46.773Z,10.45
2023-05-02T06:50:13.723Z,9.98
2023-05-02T06:52:40.607Z,9.23
2023-05-02T06:55:08.109Z,10.85
2023-05-02T06:57:35.039Z,10.05
2023-05-02T07:00:02.341Z,9.27
2023-05-02T07:02:29.625Z,9.10
2023-05-02T07:04:56.573Z,9.85
2023-05-02T07:07:23.503Z,9.65
2023-05-02T07:09:50.453Z,9.88
2023-05-02T07:12:17.326Z,10.00
2023-05-02T07:14:46.887Z,9.98
2023-05-02T07:17:16.811Z,9.57
2023-05-02T07:19:58.512Z,9.75
2023-05-02T07:22:26.121Z,9.77
2023-05-02T07:25:02.554Z,9.15
2023-05-02T07:27:30.527Z,10.05
2023-05-02T07:29:57.753Z,9.77
2023-05-02T07:32:27.965Z,9.50
2023-05-02T07:34:56.284Z,10.25
2023-05-02T07:37:23.709Z,9.60
2023-05-02T07:39:50.641Z,9.55
2023-05-02T07:42:17.751Z,9.02
2023-05-02T07:44:44.925Z,9.48
2023-05-02T07:47:12.329Z,9.20
2023-05-02T07:49:39.677Z,9.57
2023-05-02T07:52:08.176Z,9.23
2023-05-02T07:54:35.890Z,9.70
2023-05-02T07:57:05.305Z,10.77
2023-05-02T07:59:32.269Z,10.25
2023-05-02T08:01:59.355Z,9.60
2023-05-02T08:04:27.113Z,9.43
2023-05-02T08:06:55.810Z,9.20
2023-05-02T08:09:23.327Z,9.50
2023-05-02T08:11:50.947Z,9.82
2023-05-02T08:14:18.353Z,9.77
2023-05-02T08:16:46.638Z,10.05
2023-05-02T08:19:13.880Z,10.63
2023-05-02T08:21:40.882Z,10.00
2023-05-02T08:24:08.185Z,9.63
2023-05-02T08:26:35.559Z,9.07
2023-05-02T08:29:04.713Z,9.10
2023-05-02T08:31:32.025Z,9.30
2023-05-02T08:33:59.250Z,8.50
2023-05-02T08:36:28.890Z,8.65
2023-05-02T08:38:56.076Z,8.82
2023-05-02T08:41:24.234Z,8.68
2023-05-02T08:43:51.674Z,8.60
2023-05-02T08:46:18.688Z,9.07
2023-05-02T08:48:49.833Z,9.57
2023-05-02T08:53:47.059Z,8.75
2023-05-02T08:56:15.496Z,8.60
2023-05-02T08:58:42.575Z,9.10
2023-05-02T09:01:17.470Z,7.65
2023-05-02T09:03:47.440Z,7.50
2023-05-02T09:06:22.985Z,8.88
2023-05-02T09:08:54.840Z,7.82
2023-05-02T09:11:22.480Z,7.45
2023-05-02T09:13:52.221Z,7.10
2023-05-02T09:16:27.280Z,7.40
2023-05-02T09:18:59.278Z,6.63
2023-05-02T09:21:45.463Z,7.10
2023-05-02T09:24:21.661Z,6.20
2023-05-02T09:27:05.227Z,6.45
2023-05-02T09:29:39.256Z,6.70
2023-05-02T09:32:07.304Z,6.13
2023-05-02T09:34:35.009Z,5.57
2023-05-02T09:37:04.110Z,5.63
2023-05-02T09:39:31.547Z,5.45
2023-05-02T09:41:59.550Z,5.82
2023-05-02T09:44:37.455Z,4.80
2023-05-02T09:47:06.707Z,8.07
2023-05-02T09:50:02.204Z,4.13
2023-05-02T09:52:29.199Z,3.88
2023-05-02T09:54:57.878Z,3.55
2023-05-02T09:57:41.792Z,3.20
2023-05-02T10:00:10.512Z,2.90
2023-05-02T10:02:38.888Z,2.67
2023-05-02T10:05:11.716Z,4.30
2023-05-02T10:07:39.726Z,2.75
2023-05-02T10:10:11.098Z,2.10
2023-05-02T10:12:40.415Z,2.20
2023-05-02T10:15:15.290Z,1.95
2023-05-02T10:17:52.048Z,1.90
2023-05-02T10:20:32.754Z,2.50
2023-05-02T10:23:02.167Z,3.65
2023-05-02T10:25:30.052Z,1.95
2023-05-02T10:28:01.736Z,2.03
2023-05-02T10:30:31.600Z,1.95
2023-05-02T10:33:00.949Z,2.35
2023-05-02T10:35:28.050Z,2.65
2023-05-02T10:37:56.536Z,2.58
2023-05-02T10:40:23.778Z,3.10
2023-05-02T10:42:52.434Z,2.75
2023-05-02T10:45:38.273Z,2.85
2023-05-02T10:48:26.837Z,2.50
2023-05-02T10:51:01.438Z,3.20
2023-05-02T10:53:34.019Z,3.13
2023-05-02T10:56:25.867Z,4.00
2023-05-02T10:59:14.151Z,3.90
2023-05-02T11:01:42.203Z,4.32
2023-05-02T11:04:12.354Z,5.18
2023-05-02T11:06:57.929Z,5.00
2023-05-02T11:09:24.918Z,5.25
2023-05-02T11:11:52.927Z,5.32
2023-05-02T11:14:26.331Z,5.75
2023-05-02T11:17:02.174Z,6.00
2023-05-02T11:19:51.808Z,6.13
2023-05-02T11:22:21.825Z,7.75
2023-05-02T11:24:50.670Z,7.55
2023-05-02T11:27:30.283Z,9.82
2023-05-02T11:30:09.138Z,7.60
2023-05-02T11:32:49.434Z,6.95
2023-05-02T11:35:20.268Z,6.97
2023-05-02T11:37:59.103Z,6.70
2023-05-02T11:40:28.774Z,6.60
2023-05-02T11:42:59.904Z,7.43
2023-05-02T11:45:37.217Z,7.38
2023-05-02T11:48:08.347Z,6.50
2023-05-02T11:50:48.754Z,6.45
2023-05-02T11:53:22.395Z,6.40
2023-05-02T11:56:02.297Z,10.10
2023-05-02T11:58:33.630Z,6.43
2023-05-02T12:01:16.484Z,6.85
2023-05-02T12:03:44.072Z,7.53
2023-05-02T12:06:16.125Z,6.63
2023-05-02T12:08:45.418Z,6.65
2023-05-02T12:11:17.172Z,6.80
2023-05-02T12:13:49.875Z,6.85
2023-05-02T12:16:18.398Z,6.57
2023-05-02T12:18:47.717Z,6.90
2023-05-02T12:21:15.506Z,5.35
2023-05-02T12:23:43.035Z,5.90
2023-05-02T12:26:17.745Z,6.28
2023-05-02T12:28:52.800Z,5.68
2023-05-02T12:31:20.150Z,5.53
2023-05-02T12:33:48.476Z,5.88
2023-05-02T12:36:15.784Z,6.88
2023-05-02T12:38:59.674Z,6.45
2023-05-02T12:41:33.702Z,5.63
2023-05-02T12:44:01.624Z,5.65
2023-05-02T12:46:29.541Z,4.68
2023-05-02T12:49:12.470Z,3.28
2023-05-02T12:51:40.854Z,3.20
2023-05-02T12:54:07.882Z,2.80
2023-05-02T12:56:43.692Z,2.72
2023-05-02T12:59:29.986Z,2.30
2023-05-02T13:01:57.695Z,1.73
2023-05-02T13:04:41.625Z,1.67
2023-05-02T13:07:08.606Z,1.73
2023-05-02T13:09:35.588Z,1.85
2023-05-02T13:12:04.488Z,2.10
2023-05-02T13:14:31.583Z,1.70
2023-05-02T13:16:59.396Z,1.80
2023-05-02T13:19:29.294Z,2.00
2023-05-02T13:21:56.218Z,9.50
2023-05-02T13:24:23.581Z,1.80
2023-05-02T13:26:51.429Z,3.10
2023-05-02T13:29:18.373Z,1.60
2023-05-02T13:31:45.253Z,1.60
2023-05-02T13:34:12.146Z,1.60
2023-05-02T13:36:46.022Z,1.80
2023-05-02T13:39:14.666Z,1.77
2023-05-02T13:41:41.868Z,2.50
2023-05-02T13:44:09.532Z,2.00
2023-05-02T13:46:38.013Z,1.70
2023-05-02T13:49:05.277Z,1.80
2023-05-02T13:51:35.571Z,1.70
2023-05-02T13:54:02.953Z,1.80
2023-05-02T13:56:29.816Z,1.80
2023-05-02T13:58:56.869Z,1.65
2023-05-02T14:01:26.549Z,2.00
2023-05-02T14:03:53.737Z,2.00
2023-05-02T14:06:20.765Z,2.10
2023-05-02T14:08:47.750Z,2.05
2023-05-02T14:11:14.676Z,2.55
2023-05-02T14:13:41.808Z,2.60
2023-05-02T14:16:08.861Z,2.80
2023-05-02T14:18:36.026Z,2.85
2023-05-02T14:21:04.478Z,3.00
2023-05-02T14:23:31.667Z,2.72
2023-05-02T14:25:58.595Z,5.72
2023-05-02T14:28:27.100Z,3.00
2023-05-02T14:30:54.285Z,2.60
2023-05-02T14:33:21.339Z,2.80
2023-05-02T14:35:49.295Z,2.65
2023-05-02T14:38:19.120Z,3.90
2023-05-02T14:40:46.674Z,3.10
2023-05-02T14:43:14.016Z,7.70
2023-05-02T14:45:40.895Z,4.13
2023-05-02T14:48:09.500Z,3.20
2023-05-02T14:50:39.665Z,3.00
2023-05-02T14:53:07.039Z,14.43
2023-05-02T14:55:41.081Z,3.40
2023-05-02T14:58:11.871Z,3.13
2023-05-02T15:03:52.441Z,3.20
2023-05-02T15:06:32.722Z,3.33
2023-05-02T15:08:59.931Z,3.20
2023-05-02T15:12:54.808Z,3.78
2023-05-02T15:15:25.065Z,3.50
2023-05-02T15:17:53.126Z,4.55
2023-05-02T15:20:20.446Z,3.30
2023-05-02T15:22:47.339Z,3.22
2023-05-02T15:25:14.297Z,3.42
2023-05-02T15:27:42.604Z,4.60
2023-05-02T15:30:11.055Z,3.28
2023-05-02T15:32:38.005Z,3.58
2023-05-02T15:39:35.874Z,3.38
2023-05-02T15:42:06.268Z,3.80
2023-05-02T15:44:39.485Z,4.47
2023-05-02T15:47:06.479Z,3.60
2023-05-02T15:49:34.533Z,4.25
2023-05-02T15:52:02.886Z,3.45
2023-05-02T15:54:31.809Z,4.18
2023-05-02T15:56:58.722Z,3.47
2023-05-02T15:59:26.020Z,4.70
2023-05-02T16:01:52.964Z,3.35
2023-05-02T16:04:19.919Z,3.25
2023-05-02T16:06:46.900Z,3.50
2023-05-02T16:09:13.755Z,3.20
2023-05-02T16:11:40.743Z,3.35
2023-05-02T16:14:07.618Z,4.13
2023-05-02T16:16:34.592Z,4.95
2023-05-02T16:23:00.977Z,3.88
2023-05-02T16:25:27.830Z,3.90
2023-05-02T16:28:33.561Z,3.83
2023-05-02T16:31:07.160Z,3.78
2023-05-02T16:33:34.179Z,4.38
2023-05-02T16:37:25.707Z,4.70
2023-05-02T16:39:52.845Z,4.80
2023-05-02T16:42:19.787Z,11.57
2023-05-02T16:44:46.682Z,3.40
2023-05-02T16:47:13.591Z,3.55
2023-05-02T16:49:40.560Z,3.13
2023-05-02T16:52:07.508Z,6.35
2023-05-02T16:54:34.543Z,3.33
2023-05-02T16:57:02.700Z,3.47
2023-05-02T16:59:30.562Z,3.50
2023-05-02T17:01:57.828Z,3.22
2023-05-02T17:04:24.895Z,2.85
2023-05-02T17:06:56.317Z,3.60
2023-05-02T17:09:23.293Z,3.83
2023-05-02T17:11:50.904Z,4.15
2023-05-02T17:14:18.276Z,3.53
2023-05-02T17:16:45.276Z,3.35
2023-05-02T17:19:12.214Z,3.95
2023-05-02T17:21:39.213Z,3.53
2023-05-02T17:24:08.013Z,3.25
2023-05-02T17:26:35.209Z,3.30
2023-05-02T17:29:02.288Z,3.33
2023-05-02T17:31:29.205Z,3.55
2023-05-02T17:33:56.116Z,3.80
2023-05-02T17:36:22.946Z,3.42
2023-05-02T17:38:49.821Z,3.38
2023-05-02T17:41:17.002Z,3.63
2023-05-02T17:43:43.927Z,3.10
2023-05-02T17:46:11.177Z,3.30
2023-05-02T17:48:38.455Z,3.50
2023-05-02T17:51:07.037Z,3.15
2023-05-02T17:53:35.416Z,3.60
2023-05-02T17:56:04.255Z,3.30
2023-05-02T17:58:31.997Z,2.90
2023-05-02T18:01:08.260Z,3.20
2023-05-02T18:03:36.150Z,4.93
2023-05-02T18:06:03.365Z,4.75
2023-05-02T18:08:33.074Z,5.82
2023-05-02T18:11:00.540Z,7.03
2023-05-02T18:13:27.699Z,9.18
2023-05-02T18:16:01.556Z,7.97
2023-05-02T18:18:28.998Z,10.43
2023-05-02T18:20:55.919Z,10.57
2023-05-02T18:23:22.875Z,12.70
2023-05-02T18:25:49.713Z,14.85
2023-05-02T18:28:16.590Z,17.58
2023-05-02T18:30:43.502Z,7.32
2023-05-02T18:33:10.618Z,36.20
2023-05-02T18:35:37.617Z,18.02
2023-05-02T18:38:07.736Z,13.10
2023-05-02T18:40:34.680Z,16.40
2023-05-02T18:43:01.679Z,11.60
2023-05-02T18:45:28.525Z,6.07
2023-05-02T18:47:55.684Z,5.43
2023-05-02T18:50:23.014Z,6.55
2023-05-02T18:52:49.976Z,5.70
2023-05-02T18:55:18.913Z,9.88
2023-05-02T18:57:49.756Z,11.80
2023-05-02T19:00:17.669Z,13.00
2023-05-02T19:02:45.077Z,14.40
2023-05-02T19:05:12.320Z,15.60
2023-05-02T19:07:39.267Z,11.23
2023-05-02T19:10:06.740Z,8.70
2023-05-02T19:12:33.718Z,4.95
2023-05-02T19:15:01.287Z,5.15
2023-05-02T19:17:28.630Z,5.45
2023-05-02T19:19:58.148Z,5.90
2023-05-02T19:22:27.645Z,8.63
2023-05-02T19:24:55.247Z,7.25
2023-05-02T19:27:22.233Z,5.97
2023-05-02T19:29:53.196Z,5.50
2023-05-02T19:32:22.523Z,5.10
2023-05-02T19:34:49.375Z,4.72
2023-05-02T19:37:16.222Z,7.97
2023-05-02T19:39:43.087Z,11.00
2023-05-02T19:42:09.918Z,11.02
2023-05-02T19:44:36.878Z,9.70
2023-05-02T19:47:04.083Z,11.00
2023-05-02T19:49:30.942Z,12.43
2023-05-02T19:51:57.831Z,12.20
2023-05-02T19:54:24.778Z,14.35
2023-05-02T19:56:51.723Z,16.48
2023-05-02T19:59:18.643Z,12.95
2023-05-02T20:01:46.721Z,10.00
2023-05-02T20:04:13.877Z,8.80
2023-05-02T20:06:40.985Z,8.95
2023-05-02T20:09:07.960Z,7.63
2023-05-02T20:11:34.866Z,6.60
2023-05-02T20:14:01.842Z,4.80
2023-05-02T20:16:31.434Z,4.00
2023-05-02T20:18:58.623Z,4.93
2023-05-02T20:21:26.774Z,4.40
2023-05-02T20:23:53.717Z,3.97
2023-05-02T20:26:21.058Z,4.25
2023-05-02T20:28:47.972Z,4.22
2023-05-02T20:31:14.856Z,3.70
2023-05-02T20:33:45.649Z,3.85
2023-05-02T20:36:14.740Z,3.92
2023-05-02T20:38:43.046Z,4.00
2023-05-02T20:41:14.885Z,5.78
2023-05-02T20:43:44.672Z,5.43
2023-05-02T20:46:13.424Z,6.30
2023-05-02T20:48:40.396Z,6.70
2023-05-02T20:51:08.711Z,7.13
2023-05-02T20:53:39.522Z,8.82
2023-05-02T20:56:10.080Z,9.30
2023-05-02T20:58:36.883Z,9.35
2023-05-02T21:01:03.789Z,8.73
2023-05-02T21:03:32.166Z,9.13
2023-05-02T21:06:01.961Z,12.10
2023-05-02T21:08:28.873Z,9.82
2023-05-02T21:10:55.972Z,8.43
2023-05-02T21:13:22.899Z,8.73
2023-05-02T21:15:50.349Z,8.93
2023-05-02T21:18:17.605Z,9.55
2023-05-02T21:20:44.549Z,10.00
2023-05-02T21:23:11.490Z,9.10
2023-05-02T21:25:38.792Z,9.38
2023-05-02T21:28:06.072Z,9.95
2023-05-02T21:30:33.174Z,10.48
2023-05-02T21:33:00.232Z,10.82
2023-05-02T21:35:28.635Z,11.35
2023-05-02T21:37:55.578Z,12.88
2023-05-02T21:40:22.443Z,11.10
2023-05-02T21:42:49.329Z,19.98
2023-05-02T21:45:16.262Z,14.43
2023-05-02T21:47:43.480Z,13.20
2023-05-02T21:50:10.782Z,12.40
2023-05-02T21:52:37.690Z,14.73
2023-05-02T21:55:04.895Z,13.05
2023-05-02T21:57:31.722Z,12.43
2023-05-02T21:59:58.539Z,16.17
2023-05-02T22:02:25.474Z,17.55
2023-05-02T22:04:52.499Z,13.75
2023-05-02T22:07:19.360Z,14.05
2023-05-02T22:09:46.559Z,14.35
2023-05-02T22:12:13.405Z,15.05
2023-05-02T22:14:45.295Z,14.90
2023-05-02T22:17:13.753Z,14.75
2023-05-02T22:19:41.862Z,15.35
2023-05-02T22:22:08.772Z,18.70
2023-05-02T22:24:35.669Z,15.70
2023-05-02T22:27:02.652Z,15.23
2023-05-02T22:29:29.902Z,15.80
2023-05-02T22:31:56.808Z,14.40
2023-05-02T22:34:23.817Z,15.18
2023-05-02T22:36:50.901Z,13.93
2023-05-02T22:39:17.810Z,14.20
2023-05-02T22:41:44.804Z,14.25
2023-05-02T22:44:11.717Z,13.50
2023-05-02T22:46:39.056Z,13.55
2023-05-02T22:49:11.597Z,11.98
2023-05-02T22:51:40.341Z,13.80
2023-05-02T22:54:08.083Z,14.20
2023-05-02T22:56:35.454Z,13.50
2023-05-02T22:59:02.413Z,13.55
2023-05-02T23:01:29.359Z,13.98
2023-05-02T23:03:56.515Z,13.95
2023-05-02T23:06:23.674Z,13.43
2023-05-02T23:08:50.751Z,12.45
2023-05-02T23:11:17.819Z,18.48
2023-05-02T23:13:44.866Z,20.80
2023-05-02T23:16:11.784Z,15.35
2023-05-02T23:18:38.714Z,18.90
2023-05-02T23:21:05.981Z,18.38
2023-05-02T23:23:32.829Z,16.70
2023-05-02T23:25:59.704Z,16.02
2023-05-02T23:28:26.728Z,14.77
2023-05-02T23:30:53.952Z,13.63
2023-05-02T23:33:21.168Z,12.32
2023-05-02T23:35:48.695Z,11.48
2023-05-02T23:38:15.940Z,12.43
2023-05-02T23:40:43.095Z,11.10
2023-05-02T23:43:10.864Z,10.77
2023-05-02T23:45:37.774Z,11.73
2023-05-02T23:48:04.829Z,11.10
2023-05-02T23:50:32.893Z,12.23
2023-05-02T23:52:59.950Z,11.98
2023-05-02T23:55:27.011Z,12.88
2023-05-02T23:57:53.913Z,12.70
